createdAt,value
2022-09-21T00:01:31.383Z,3.10
2022-09-21T00:04:01.990Z,3.50
2022-09-21T00:06:33.798Z,3.30
2022-09-21T00:09:04.084Z,3.40
2022-09-21T00:11:33.181Z,3.20
2022-09-21T00:14:10.708Z,3.50
2022-09-21T00:16:40.599Z,3.60
2022-09-21T00:19:09.539Z,3.50
2022-09-21T00:21:38.366Z,3.70
2022-09-21T00:24:07.488Z,3.80
2022-09-21T00:26:35.499Z,3.50
2022-09-21T00:29:04.124Z,3.40
2022-09-21T00:31:33.201Z,3.60
2022-09-21T00:34:01.164Z,3.20
2022-09-21T00:36:29.130Z,3.70
2022-09-21T00:39:01.029Z,3.60
2022-09-21T00:41:31.211Z,3.30
2022-09-21T00:44:25.223Z,3.30
2022-09-21T00:46:55.955Z,3.30
2022-09-21T00:49:26.558Z,3.30
2022-09-21T00:51:56.630Z,3.50
2022-09-21T00:54:29.918Z,3.50
2022-09-21T00:57:03.148Z,3.60
2022-09-21T00:59:34.311Z,3.20
2022-09-21T01:02:02.651Z,3.30
2022-09-21T01:04:31.729Z,3.40
2022-09-21T01:07:05.690Z,3.10
2022-09-21T01:09:34.388Z,3.70
2022-09-21T01:12:21.270Z,3.30
2022-09-21T01:14:54.919Z,3.30
2022-09-21T01:17:34.880Z,3.50
2022-09-21T01:20:57.253Z,3.50
2022-09-21T01:23:42.783Z,3.40
2022-09-21T01:26:39.197Z,3.30
2022-09-21T01:29:17.106Z,3.40
2022-09-21T01:32:09.328Z,3.80
2022-09-21T01:34:46.281Z,3.80
2022-09-21T01:37:21.189Z,3.60
2022-09-21T01:39:54.274Z,3.30
2022-09-21T01:42:24.425Z,4.10
2022-09-21T01:44:52.813Z,3.80
2022-09-21T01:47:22.383Z,3.60
2022-09-21T01:49:55.120Z,3.70
2022-09-21T01:52:40.252Z,3.20
2022-09-21T01:55:28.334Z,3.80
2022-09-21T01:58:11.200Z,3.30
2022-09-21T02:00:41.454Z,3.30
2022-09-21T02:03:25.112Z,3.80
2022-09-21T02:05:53.841Z,3.40
2022-09-21T02:08:21.690Z,3.70
2022-09-21T02:10:51.711Z,3.80
2022-09-21T02:13:25.332Z,3.30
2022-09-21T02:16:08.027Z,3.40
2022-09-21T02:19:09.485Z,3.70
2022-09-21T02:21:52.005Z,3.60
2022-09-21T02:24:43.229Z,3.80
2022-09-21T02:27:52.662Z,4.00
2022-09-21T02:30:22.240Z,4.10
2022-09-21T02:32:59.077Z,4.30
2022-09-21T02:35:43.006Z,4.20
2022-09-21T02:38:32.713Z,4.60
2022-09-21T02:41:00.387Z,5.20
2022-09-21T02:43:37.376Z,5.00
2022-09-21T02:46:11.831Z,5.40
2022-09-21T02:48:52.950Z,5.60
2022-09-21T02:51:36.664Z,5.50
2022-09-21T02:54:08.151Z,5.20
2022-09-21T02:56:37.284Z,5.10
2022-09-21T02:59:06.905Z,4.50
2022-09-21T03:01:35.159Z,5.20
2022-09-21T03:04:03.315Z,5.40
2022-09-21T03:06:31.508Z,5.40
2022-09-21T03:08:59.192Z,5.00
2022-09-21T03:11:26.917Z,5.20
2022-09-21T03:13:54.921Z,5.60
2022-09-21T03:16:24.190Z,5.70
2022-09-21T03:18:52.323Z,6.10
2022-09-21T03:21:20.062Z,5.60
2022-09-21T03:23:47.828Z,5.80
2022-09-21T03:26:15.535Z,5.90
2022-09-21T03:28:43.251Z,5.40
2022-09-21T03:31:11.002Z,5.90
2022-09-21T03:33:38.745Z,6.10
2022-09-21T03:36:06.817Z,6.00
2022-09-21T03:38:34.869Z,6.20
2022-09-21T03:41:02.649Z,6.40
2022-09-21T03:43:30.607Z,5.90
2022-09-21T03:45:58.749Z,5.90
2022-09-21T03:48:26.588Z,5.90
2022-09-21T03:50:54.303Z,5.90
2022-09-21T03:53:22.003Z,5.60
2022-09-21T03:55:49.716Z,5.50
2022-09-21T03:58:17.383Z,5.90
2022-09-21T04:00:45.464Z,5.90
2022-09-21T04:03:13.170Z,6.50
2022-09-21T04:05:40.853Z,6.40
2022-09-21T04:08:10.158Z,6.50
2022-09-21T04:10:41.038Z,6.10
2022-09-21T04:13:09.303Z,6.30
2022-09-21T04:15:37.126Z,6.20
2022-09-21T04:18:05.945Z,6.70
2022-09-21T04:20:33.709Z,6.20
2022-09-21T04:23:01.454Z,6.10
2022-09-21T04:25:29.154Z,6.30
2022-09-21T04:27:57.109Z,6.10
2022-09-21T04:30:24.807Z,6.40
2022-09-21T04:32:52.964Z,6.30
2022-09-21T04:35:21.347Z,6.40
2022-09-21T04:37:49.069Z,6.90
2022-09-21T04:40:17.389Z,6.50
2022-09-21T04:42:45.147Z,6.80
2022-09-21T04:45:13.267Z,6.50
2022-09-21T04:47:40.952Z,6.80
2022-09-21T04:50:09.384Z,8.10
2022-09-21T04:52:37.118Z,11.10
2022-09-21T04:55:05.321Z,6.90
2022-09-21T04:57:33.498Z,6.30
2022-09-21T05:00:02.402Z,6.00
2022-09-21T05:02:30.178Z,6.60
2022-09-21T05:04:57.912Z,6.10
2022-09-21T05:07:25.607Z,6.40
2022-09-21T05:10:05.311Z,5.90
2022-09-21T05:12:35.439Z,5.90
2022-09-21T05:15:06.121Z,6.20
2022-09-21T05:17:33.916Z,5.50
2022-09-21T05:20:02.244Z,6.00
2022-09-21T05:22:30.024Z,6.00
2022-09-21T05:24:57.786Z,6.00
2022-09-21T05:27:25.564Z,5.90
2022-09-21T05:29:53.865Z,6.00
2022-09-21T05:32:34.491Z,6.30
2022-09-21T05:35:17.495Z,6.50
2022-09-21T05:38:04.723Z,6.10
2022-09-21T05:40:32.912Z,6.30
2022-09-21T05:43:00.920Z,6.00
2022-09-21T05:45:29.100Z,6.30
2022-09-21T05:48:16.275Z,5.40
2022-09-21T05:51:06.487Z,5.90
2022-09-21T05:53:55.848Z,6.10
2022-09-21T05:56:35.543Z,5.70
2022-09-21T05:59:03.154Z,5.40
2022-09-21T06:01:45.343Z,5.80
2022-09-21T06:04:13.391Z,5.60
2022-09-21T06:06:41.106Z,5.30
2022-09-21T06:09:08.916Z,5.00
2022-09-21T06:11:36.965Z,5.00
2022-09-21T06:14:04.997Z,5.40
2022-09-21T06:16:41.022Z,5.40
2022-09-21T06:19:12.992Z,5.00
2022-09-21T06:21:40.817Z,4.90
2022-09-21T06:24:08.746Z,5.00
2022-09-21T06:26:36.435Z,4.90
2022-09-21T06:29:04.609Z,4.70
2022-09-21T06:31:33.124Z,4.30
2022-09-21T06:34:00.864Z,4.30
2022-09-21T06:36:28.629Z,4.40
2022-09-21T06:38:56.420Z,4.60
2022-09-21T06:41:24.114Z,4.60
2022-09-21T06:43:56.059Z,3.70
2022-09-21T06:46:24.258Z,3.90
2022-09-21T06:48:51.949Z,3.90
2022-09-21T06:51:21.706Z,4.00
2022-09-21T06:53:54.163Z,3.60
2022-09-21T06:56:23.017Z,3.90
2022-09-21T06:58:51.992Z,3.10
2022-09-21T07:01:20.659Z,3.10
2022-09-21T07:03:51.228Z,3.00
2022-09-21T07:06:19.114Z,2.60
2022-09-21T07:11:36.008Z,2.60
2022-09-21T07:14:05.546Z,2.90
2022-09-21T07:16:33.674Z,2.60
2022-09-21T07:19:11.117Z,2.40
2022-09-21T07:21:39.455Z,2.50
2022-09-21T07:24:11.855Z,2.40
2022-09-21T07:26:40.676Z,2.70
2022-09-21T07:29:08.700Z,2.60
2022-09-21T07:31:36.645Z,2.60
2022-09-21T07:34:04.529Z,2.30
2022-09-21T07:36:32.543Z,1.70
2022-09-21T07:39:00.317Z,1.80
2022-09-21T07:41:28.039Z,1.70
2022-09-21T07:43:55.867Z,1.80
2022-09-21T07:46:23.907Z,1.80
2022-09-21T07:48:56.953Z,1.80
2022-09-21T07:51:24.834Z,1.70
2022-09-21T07:53:56.998Z,1.80
2022-09-21T07:56:25.689Z,1.90
2022-09-21T07:59:08.620Z,1.80
2022-09-21T08:01:39.270Z,1.80
2022-09-21T08:04:09.682Z,1.70
2022-09-21T08:06:40.147Z,1.80
2022-09-21T08:09:08.806Z,1.80
2022-09-21T08:11:37.843Z,1.60
2022-09-21T08:14:06.384Z,1.80
2022-09-21T08:16:34.865Z,1.60
2022-09-21T08:19:05.256Z,1.60
2022-09-21T08:21:33.374Z,1.90
2022-09-21T08:24:01.219Z,1.50
2022-09-21T08:26:28.891Z,1.40
2022-09-21T08:28:58.953Z,1.30
2022-09-21T08:31:27.191Z,1.20
2022-09-21T08:33:57.617Z,1.40
2022-09-21T08:36:25.489Z,2.00
2022-09-21T08:38:55.189Z,1.30
2022-09-21T08:41:33.765Z,2.00
2022-09-21T08:44:07.601Z,1.40
2022-09-21T08:46:37.395Z,1.40
2022-09-21T08:49:19.546Z,1.50
2022-09-21T08:51:56.134Z,1.20
2022-09-21T08:54:47.038Z,1.20
2022-09-21T08:57:17.489Z,1.00
2022-09-21T08:59:47.560Z,1.10
2022-09-21T09:02:39.981Z,1.20
2022-09-21T09:05:24.836Z,1.70
2022-09-21T09:08:09.596Z,1.30
2022-09-21T09:11:09.821Z,1.20
2022-09-21T09:14:06.576Z,1.00
2022-09-21T09:17:15.831Z,1.10
2022-09-21T09:20:01.705Z,1.20
2022-09-21T09:22:40.398Z,1.70
2022-09-21T09:25:22.511Z,1.40
2022-09-21T09:28:09.998Z,1.30
2022-09-21T09:30:37.893Z,1.20
2022-09-21T09:33:13.240Z,1.20
2022-09-21T09:35:48.413Z,1.30
2022-09-21T09:38:37.604Z,1.20
2022-09-21T09:41:43.717Z,1.20
2022-09-21T09:44:39.033Z,1.20
2022-09-21T09:47:12.439Z,1.10
2022-09-21T09:49:51.058Z,1.10
2022-09-21T09:52:18.759Z,1.10
2022-09-21T09:54:46.673Z,1.00
2022-09-21T09:57:15.693Z,1.10
2022-09-21T09:59:54.029Z,1.10
2022-09-21T10:02:24.075Z,1.00
2022-09-21T10:05:09.481Z,0.90
2022-09-21T10:07:46.609Z,1.20
2022-09-21T10:10:29.859Z,1.00
2022-09-21T10:13:02.619Z,1.10
2022-09-21T10:15:30.455Z,0.90
2022-09-21T10:18:18.888Z,1.00
2022-09-21T10:21:07.962Z,1.00
2022-09-21T10:23:38.477Z,1.00
2022-09-21T10:26:12.783Z,0.60
2022-09-21T10:28:59.123Z,0.70
2022-09-21T10:31:30.056Z,0.80
2022-09-21T10:34:03.905Z,0.90
2022-09-21T10:36:37.056Z,0.90
2022-09-21T10:39:34.419Z,0.70
2022-09-21T10:42:06.968Z,1.10
2022-09-21T10:44:41.960Z,1.10
2022-09-21T10:47:23.800Z,0.80
2022-09-21T10:49:54.772Z,1.00
2022-09-21T10:52:25.584Z,0.90
2022-09-21T10:54:56.061Z,0.80
2022-09-21T10:57:25.889Z,0.90
2022-09-21T10:59:54.066Z,0.90
2022-09-21T11:02:26.480Z,1.00
2022-09-21T11:05:00.850Z,1.00
2022-09-21T11:07:49.838Z,1.00
2022-09-21T11:10:34.134Z,0.90
2022-09-21T11:13:14.973Z,0.90
2022-09-21T11:15:56.260Z,1.00
2022-09-21T11:18:26.962Z,1.00
2022-09-21T11:20:59.700Z,0.90
2022-09-21T11:23:47.153Z,0.80
2022-09-21T11:26:30.165Z,0.70
2022-09-21T11:29:06.841Z,0.80
2022-09-21T11:31:47.167Z,0.70
2022-09-21T11:34:35.052Z,0.70
2022-09-21T11:37:02.633Z,0.80
2022-09-21T11:40:02.881Z,0.50
2022-09-21T11:42:49.453Z,0.70
2022-09-21T11:45:49.680Z,0.60
2022-09-21T11:48:59.532Z,0.90
2022-09-21T11:51:45.365Z,0.70
2022-09-21T11:54:28.846Z,0.70
2022-09-21T11:57:09.388Z,0.60
2022-09-21T11:59:46.307Z,0.70
2022-09-21T12:02:46.507Z,0.60
2022-09-21T12:05:36.177Z,0.80
2022-09-21T12:08:22.207Z,0.70
2022-09-21T12:11:12.717Z,0.60
2022-09-21T12:13:54.981Z,0.70
2022-09-21T12:16:40.895Z,0.70
2022-09-21T12:19:34.135Z,0.70
2022-09-21T12:22:29.968Z,0.80
2022-09-21T12:25:04.360Z,0.80
2022-09-21T12:27:44.340Z,0.60
2022-09-21T12:30:17.093Z,0.70
2022-09-21T12:32:59.140Z,0.50
2022-09-21T12:35:53.730Z,0.80
2022-09-21T12:38:23.615Z,0.80
2022-09-21T12:41:17.492Z,0.70
2022-09-21T12:44:15.510Z,0.80
2022-09-21T12:46:55.121Z,0.80
2022-09-21T12:49:30.446Z,0.80
2022-09-21T12:52:03.719Z,0.80
2022-09-21T12:54:58.879Z,1.00
2022-09-21T12:57:53.729Z,1.30
2022-09-21T13:00:28.300Z,1.20
2022-09-21T13:03:09.909Z,0.90
2022-09-21T13:05:50.260Z,0.70
2022-09-21T13:08:27.826Z,0.70
2022-09-21T13:11:01.062Z,0.70
2022-09-21T13:13:33.777Z,0.70
2022-09-21T13:16:04.380Z,0.70
2022-09-21T13:18:39.241Z,0.60
2022-09-21T13:21:30.032Z,0.70
2022-09-21T13:24:03.173Z,0.70
2022-09-21T13:26:44.148Z,0.60
2022-09-21T13:29:19.034Z,1.00
2022-09-21T13:31:59.321Z,1.00
2022-09-21T13:34:30.169Z,1.20
2022-09-21T13:37:19.238Z,1.40
2022-09-21T13:40:16.250Z,1.10
2022-09-21T13:42:48.923Z,0.90
2022-09-21T13:45:19.310Z,0.90
2022-09-21T13:47:54.264Z,1.00
2022-09-21T13:50:39.340Z,1.00
2022-09-21T13:53:17.445Z,1.10
2022-09-21T13:56:16.927Z,1.10
2022-09-21T13:58:48.069Z,1.20
2022-09-21T14:01:47.800Z,1.40
2022-09-21T14:04:39.797Z,1.30
2022-09-21T14:07:08.451Z,1.30
2022-09-21T14:09:42.718Z,1.20
2022-09-21T14:12:21.389Z,1.00
2022-09-21T14:15:11.471Z,1.10
2022-09-21T14:17:40.947Z,1.00
2022-09-21T14:20:32.719Z,1.00
2022-09-21T14:23:14.689Z,0.80
2022-09-21T14:25:58.056Z,0.80
2022-09-21T14:28:43.296Z,0.90
2022-09-21T14:31:31.541Z,0.70
2022-09-21T14:34:03.963Z,0.80
2022-09-21T14:36:41.557Z,0.80
2022-09-21T14:39:37.421Z,0.70
2022-09-21T14:42:19.624Z,0.70
2022-09-21T14:44:51.429Z,0.80
2022-09-21T14:47:48.865Z,0.90
2022-09-21T14:50:24.091Z,0.80
2022-09-21T14:53:23.990Z,0.80
2022-09-21T14:56:34.020Z,0.60
2022-09-21T14:59:22.932Z,0.70
2022-09-21T15:02:02.482Z,0.80
2022-09-21T15:04:45.273Z,0.70
2022-09-21T15:07:35.426Z,0.60
2022-09-21T15:10:53.053Z,0.80
2022-09-21T15:13:53.580Z,3.90
2022-09-21T15:16:41.456Z,0.90
2022-09-21T15:19:21.044Z,0.90
2022-09-21T15:21:54.850Z,1.00
2022-09-21T15:24:34.320Z,0.90
2022-09-21T15:27:10.388Z,0.90
2022-09-21T15:29:40.090Z,0.90
2022-09-21T15:32:07.884Z,0.90
2022-09-21T15:34:35.723Z,1.00
2022-09-21T15:37:12.521Z,0.90
2022-09-21T15:39:41.285Z,0.90
2022-09-21T15:42:22.638Z,1.00
2022-09-21T15:45:06.115Z,0.80
2022-09-21T15:47:34.598Z,0.90
2022-09-21T15:50:02.337Z,1.10
2022-09-21T15:52:39.042Z,1.10
2022-09-21T15:55:21.604Z,1.20
2022-09-21T15:57:58.175Z,1.10
2022-09-21T16:00:31.870Z,1.10
2022-09-21T16:03:07.573Z,4.40
2022-09-21T16:05:45.324Z,4.70
2022-09-21T16:08:30.323Z,1.00
2022-09-21T16:11:33.399Z,1.00
2022-09-21T16:14:29.279Z,1.00
2022-09-21T16:17:09.304Z,1.20
2022-09-21T16:20:03.709Z,0.70
2022-09-21T16:22:44.262Z,0.90
2022-09-21T16:25:37.055Z,0.80
2022-09-21T16:28:29.441Z,0.90
2022-09-21T16:30:59.067Z,0.80
2022-09-21T16:33:49.236Z,1.20
2022-09-21T16:36:16.996Z,1.00
2022-09-21T16:38:47.105Z,0.90
2022-09-21T16:41:14.948Z,0.90
2022-09-21T16:43:43.878Z,0.90
2022-09-21T16:46:13.027Z,11.20
2022-09-21T16:48:40.777Z,12.50
2022-09-21T16:51:24.428Z,1.40
2022-09-21T16:53:52.270Z,1.00
2022-09-21T16:56:20.182Z,1.30
2022-09-21T16:58:48.048Z,1.50
2022-09-21T17:01:20.854Z,1.60
2022-09-21T17:03:48.818Z,2.00
2022-09-21T17:06:18.962Z,2.10
2022-09-21T17:08:48.413Z,2.10
2022-09-21T17:11:20.098Z,2.10
2022-09-21T17:13:51.231Z,2.00
2022-09-21T17:16:20.366Z,1.90
2022-09-21T17:18:49.093Z,1.80
2022-09-21T17:21:17.398Z,1.80
2022-09-21T17:23:45.460Z,1.90
2022-09-21T17:26:19.351Z,2.30
2022-09-21T17:28:47.457Z,2.20
2022-09-21T17:31:19.067Z,2.20
2022-09-21T17:33:49.232Z,2.10
2022-09-21T17:36:18.625Z,2.20
2022-09-21T17:38:46.398Z,2.70
2022-09-21T17:41:29.187Z,2.70
2022-09-21T17:44:09.776Z,2.30
2022-09-21T17:47:02.581Z,2.40
2022-09-21T17:49:30.469Z,2.20
2022-09-21T17:52:17.043Z,1.90
2022-09-21T17:54:45.688Z,2.20
2022-09-21T17:57:33.269Z,2.40
2022-09-21T18:00:14.043Z,18.80
2022-09-21T18:02:42.204Z,7.80
2022-09-21T18:05:21.697Z,3.00
2022-09-21T18:07:51.172Z,2.00
2022-09-21T18:10:29.554Z,26.40
2022-09-21T18:13:12.841Z,4.50
2022-09-21T18:15:54.689Z,2.90
2022-09-21T18:18:46.868Z,2.70
2022-09-21T18:21:27.538Z,2.00
2022-09-21T18:24:17.157Z,2.60
2022-09-21T18:26:45.231Z,2.60
2022-09-21T18:29:41.818Z,2.70
2022-09-21T18:32:22.188Z,2.60
2022-09-21T18:35:14.277Z,2.90
2022-09-21T18:37:48.641Z,3.00
2022-09-21T18:40:27.042Z,3.00
2022-09-21T18:43:06.196Z,2.90
2022-09-21T18:45:41.047Z,2.80
2022-09-21T18:48:13.319Z,2.90
2022-09-21T18:50:40.950Z,3.20
2022-09-21T18:53:45.263Z,3.70
2022-09-21T18:56:14.238Z,3.30
2022-09-21T18:58:43.231Z,3.30
2022-09-21T19:01:16.504Z,3.50
2022-09-21T19:03:45.383Z,6.90
2022-09-21T19:06:15.843Z,5.90
2022-09-21T19:08:55.514Z,3.80
2022-09-21T19:11:49.684Z,3.50
2022-09-21T19:14:32.736Z,3.50
2022-09-21T19:17:03.140Z,3.70
2022-09-21T19:19:44.475Z,3.40
2022-09-21T19:22:24.555Z,3.60
2022-09-21T19:25:10.193Z,3.70
2022-09-21T19:27:52.741Z,3.60
2022-09-21T19:30:20.601Z,3.80
2022-09-21T19:32:58.352Z,4.20
2022-09-21T19:35:29.182Z,3.80
2022-09-21T19:38:01.762Z,4.00
2022-09-21T19:40:34.795Z,4.00
2022-09-21T19:43:45.287Z,3.60
2022-09-21T19:49:38.352Z,3.80
2022-09-21T19:52:06.387Z,4.30
2022-09-21T19:54:53.230Z,5.70
2022-09-21T19:57:41.240Z,18.10
2022-09-21T20:00:13.031Z,29.90
2022-09-21T20:03:07.516Z,6.60
2022-09-21T20:05:40.711Z,4.00
2022-09-21T20:08:13.904Z,3.70
2022-09-21T20:11:01.102Z,4.00
2022-09-21T20:14:00.190Z,3.40
2022-09-21T20:16:46.619Z,3.50
2022-09-21T20:19:46.777Z,3.90
2022-09-21T20:22:24.572Z,3.50
2022-09-21T20:24:58.295Z,3.70
2022-09-21T20:27:56.047Z,3.40
2022-09-21T20:30:27.105Z,3.80
2022-09-21T20:32:58.092Z,3.80
2022-09-21T20:35:30.366Z,3.50
2022-09-21T20:38:02.467Z,6.60
2022-09-21T20:40:32.350Z,5.50
2022-09-21T20:43:03.137Z,4.10
2022-09-21T20:45:32.293Z,4.10
2022-09-21T20:48:15.827Z,4.00
2022-09-21T20:50:46.390Z,4.00
2022-09-21T20:53:14.611Z,4.70
2022-09-21T20:55:44.019Z,5.10
2022-09-21T20:58:12.901Z,4.30
2022-09-21T21:00:40.706Z,4.50
2022-09-21T21:03:08.821Z,4.40
2022-09-21T21:05:36.610Z,4.10
2022-09-21T21:08:05.175Z,4.10
2022-09-21T21:10:32.971Z,4.00
2022-09-21T21:13:01.638Z,4.20
2022-09-21T21:15:29.712Z,3.60
2022-09-21T21:17:57.961Z,3.80
2022-09-21T21:20:25.741Z,3.80
2022-09-21T21:22:53.853Z,3.50
2022-09-21T21:25:21.598Z,3.70
2022-09-21T21:27:49.349Z,3.80
2022-09-21T21:30:17.237Z,4.00
2022-09-21T21:32:45.020Z,4.00
2022-09-21T21:35:12.887Z,4.00
2022-09-21T21:37:40.571Z,3.70
2022-09-21T21:40:10.167Z,3.70
2022-09-21T21:42:37.876Z,3.90
2022-09-21T21:45:06.322Z,4.00
2022-09-21T21:47:41.605Z,3.80
2022-09-21T21:50:16.727Z,3.80
2022-09-21T21:52:45.297Z,3.40
2022-09-21T21:55:13.068Z,3.40
2022-09-21T21:57:44.901Z,3.30
2022-09-21T22:00:13.178Z,3.50
2022-09-21T22:02:40.961Z,3.10
2022-09-21T22:05:08.890Z,3.40
2022-09-21T22:07:37.846Z,3.00
2022-09-21T22:10:08.446Z,3.30
2022-09-21T22:12:36.137Z,3.50
2022-09-21T22:15:04.044Z,3.30
2022-09-21T22:17:31.818Z,3.10
2022-09-21T22:19:59.528Z,3.50
2022-09-21T22:22:27.320Z,3.20
2022-09-21T22:24:55.207Z,2.90
2022-09-21T22:27:23.087Z,3.50
2022-09-21T22:29:50.781Z,3.00
2022-09-21T22:32:18.840Z,2.90
2022-09-21T22:34:46.532Z,3.30
2022-09-21T22:37:14.227Z,3.10
2022-09-21T22:39:42.877Z,3.10
2022-09-21T22:42:11.603Z,3.30
2022-09-21T22:44:39.302Z,2.90
2022-09-21T22:47:07.000Z,3.00
2022-09-21T22:49:35.393Z,2.80
2022-09-21T22:52:03.460Z,2.80
2022-09-21T22:54:31.184Z,2.70
2022-09-21T22:56:58.944Z,2.80
2022-09-21T22:59:26.710Z,2.90
2022-09-21T23:01:56.537Z,2.60
2022-09-21T23:04:24.520Z,2.90
2022-09-21T23:06:52.316Z,3.00
2022-09-21T23:09:21.411Z,2.80
2022-09-21T23:11:53.606Z,2.80
2022-09-21T23:14:22.980Z,2.70
2022-09-21T23:16:50.773Z,3.00
2022-09-21T23:19:18.560Z,2.80
2022-09-21T23:21:51.429Z,3.00
2022-09-21T23:24:20.235Z,3.10
2022-09-21T23:26:51.669Z,2.90
2022-09-21T23:29:19.861Z,3.10
2022-09-21T23:31:47.864Z,2.80
2022-09-21T23:34:16.563Z,2.90
2022-09-21T23:36:45.353Z,3.10
2022-09-21T23:39:14.677Z,3.30
2022-09-21T23:41:42.719Z,3.20
2022-09-21T23:44:10.458Z,3.30
2022-09-21T23:46:39.716Z,3.10
2022-09-21T23:49:07.788Z,3.40
2022-09-21T23:51:35.615Z,3.10
2022-09-21T23:54:04.045Z,3.20
2022-09-21T23:56:32.538Z,3.10
2022-09-21T23:59:00.686Z,2.70
